This is the latest recevied weather packets stored in our database for station/object KI4NG. If no packets are shown the sender has not sent any weather packets the latest 1 day(s).
| Time | Temp. | Humidity | Pressure | Rain* | Wind** | Luminosity | Snow |
|---|---|---|---|---|---|---|---|
| 1778006835 | 20.56° C | 60% | 1013.6 hPa | 0 mm | 2.24 m/s, 194° | 255 W/m² | - |
| 1778006533 | 21.11° C | 60% | 1013.7 hPa | 0 mm | 2.68 m/s, 199° | 223 W/m² | - |
| 1778006229 | 21.11° C | 60% | 1013.6 hPa | 0 mm | 3.13 m/s, 170° | 310 W/m² | - |
| 1778005927 | 21.11° C | 59% | 1013.6 hPa | 0 mm | 3.13 m/s, 263° | 421 W/m² | - |
| 1778005622 | 21.11° C | 60% | 1013.6 hPa | 0 mm | 2.24 m/s, 150° | 372 W/m² | - |
| 1778005320 | 21.11° C | 58% | 1013.6 hPa | 0 mm | 2.68 m/s, 190° | 361 W/m² | - |
| 1778005016 | 21.11° C | 55% | 1013.6 hPa | 0 mm | 3.58 m/s, 237° | 393 W/m² | - |
| 1778004714 | 21.11° C | 56% | 1013.6 hPa | 0 mm | 2.24 m/s, 183° | 567 W/m² | - |
| 1778004410 | 20.56° C | 56% | 1013.9 hPa | 0 mm | 2.68 m/s, 258° | 490 W/m² | - |
| 1778004108 | 20.56° C | 58% | 1013.6 hPa | 0 mm | 2.68 m/s, 179° | 400 W/m² | - |
| 1778003803 | 21.11° C | 56% | 1013.8 hPa | 0 mm | 3.58 m/s, 194° | 404 W/m² | - |
| 1778003500 | 21.11° C | 56% | 1014.1 hPa | 0 mm | 3.13 m/s, 247° | 594 W/m² | - |
| 1778003196 | 20.56° C | 59% | 1014.1 hPa | 0 mm | 2.24 m/s, 199° | 533 W/m² | - |
| 1778002892 | 20.56° C | 58% | 1014.1 hPa | 0 mm | 1.79 m/s, 187° | 483 W/m² | - |
| 1778002589 | 20.56° C | 59% | 1014.3 hPa | 0 mm | 3.58 m/s, 196° | 442 W/m² | - |
| 1778002286 | 20.56° C | 62% | 1014.5 hPa | 0 mm | 2.24 m/s, 212° | 436 W/m² | - |
| 1778001984 | 20.56° C | 63% | 1014.5 hPa | 0 mm | 1.79 m/s, 243° | 505 W/m² | - |
| 1778001680 | 20.56° C | 63% | 1014.6 hPa | 0 mm | 2.68 m/s, 173° | 552 W/m² | - |
| 1778001375 | 20.56° C | 63% | 1014.8 hPa | 0 mm | 4.02 m/s, 242° | 484 W/m² | - |
| 1778001072 | 20° C | 67% | 1014.7 hPa | 0 mm | 0.89 m/s, 168° | 484 W/m² | - |
| 1778000769 | 20° C | 66% | 1014.8 hPa | 0 mm | 2.24 m/s, 176° | 451 W/m² | - |
| 1778000466 | 20° C | 65% | 1014.9 hPa | 0 mm | 1.79 m/s, 224° | 369 W/m² | - |
| 1778000161 | 20° C | 66% | 1015.2 hPa | 0 mm | 1.34 m/s, 213° | 326 W/m² | - |
| 1777999857 | 20° C | 66% | 1014.9 hPa | 0 mm | 1.34 m/s, 210° | 315 W/m² | - |
| 1777999553 | 20° C | 65% | 1015.1 hPa | 0 mm | 3.13 m/s, 224° | 329 W/m² | - |
* Rain latest hour (hover to see other rain measurements)
** Current wind speed in m/s (hover to see current wind gust speed)